createdAt,value
2022-10-19T00:01:40.360Z,61.80
2022-10-19T00:04:11.330Z,61.75
2022-10-19T00:07:00.390Z,61.60
2022-10-19T00:09:32.056Z,61.76
2022-10-19T00:12:02.735Z,61.70
2022-10-19T00:14:33.433Z,61.77
2022-10-19T00:17:04.191Z,61.59
2022-10-19T00:19:35.177Z,61.56
2022-10-19T00:22:07.187Z,61.55
2022-10-19T00:24:39.916Z,61.58
2022-10-19T00:27:10.827Z,61.50
2022-10-19T00:29:42.095Z,61.64
2022-10-19T00:32:12.727Z,61.38
2022-10-19T00:34:43.398Z,61.38
2022-10-19T00:37:14.096Z,61.57
2022-10-19T00:39:44.977Z,61.53
2022-10-19T00:42:16.296Z,61.40
2022-10-19T00:44:46.722Z,61.39
2022-10-19T00:47:18.556Z,61.49
2022-10-19T00:50:08.193Z,61.54
2022-10-19T00:52:38.913Z,61.41
2022-10-19T00:55:11.070Z,61.62
2022-10-19T00:57:43.465Z,61.63
2022-10-19T01:03:01.882Z,61.49
2022-10-19T01:05:33.902Z,61.55
2022-10-19T01:08:05.145Z,61.47
2022-10-19T01:11:09.048Z,61.44
2022-10-19T01:14:18.196Z,61.52
2022-10-19T01:17:03.945Z,61.27
2022-10-19T01:20:31.671Z,61.07
2022-10-19T01:23:39.798Z,61.28
2022-10-19T01:26:54.832Z,61.30
2022-10-19T01:29:57.929Z,60.93
2022-10-19T01:32:31.989Z,60.76
2022-10-19T01:35:11.800Z,60.55
2022-10-19T01:41:37.589Z,60.84
2022-10-19T01:44:34.840Z,60.39
2022-10-19T01:47:29.088Z,60.65
2022-10-19T01:50:37.474Z,60.27
2022-10-19T01:53:12.597Z,60.35
2022-10-19T02:01:58.835Z,60.46
2022-10-19T02:04:30.083Z,60.53
2022-10-19T02:07:01.407Z,60.44
2022-10-19T02:09:50.524Z,60.53
2022-10-19T02:12:24.238Z,60.27
2022-10-19T02:15:18.215Z,59.88
2022-10-19T02:17:55.721Z,59.60
2022-10-19T02:20:27.296Z,59.07
2022-10-19T02:22:58.485Z,59.47
2022-10-19T02:28:35.464Z,58.96
2022-10-19T02:31:07.000Z,58.90
2022-10-19T02:33:38.354Z,58.79
2022-10-19T02:36:09.053Z,58.92
2022-10-19T02:38:40.251Z,59.44
2022-10-19T02:41:51.553Z,59.28
2022-10-19T02:44:31.565Z,59.12
2022-10-19T02:47:08.784Z,58.63
2022-10-19T02:49:41.183Z,59.02
2022-10-19T02:52:14.665Z,59.05
2022-10-19T02:54:47.929Z,58.74
2022-10-19T02:57:22.379Z,58.65
2022-10-19T02:59:54.798Z,57.53
2022-10-19T03:02:25.814Z,57.33
2022-10-19T03:04:56.828Z,57.26
2022-10-19T03:07:28.087Z,57.73
2022-10-19T03:09:59.034Z,57.22
2022-10-19T03:12:29.951Z,57.17
2022-10-19T03:15:00.986Z,57.52
2022-10-19T03:17:32.452Z,57.47
2022-10-19T03:20:03.692Z,57.12
2022-10-19T03:22:34.612Z,57.33
2022-10-19T03:25:05.559Z,56.64
2022-10-19T03:27:36.647Z,56.71
2022-10-19T03:30:07.757Z,56.45
2022-10-19T03:32:38.702Z,56.89
2022-10-19T03:35:10.428Z,57.20
2022-10-19T03:37:41.375Z,57.28
2022-10-19T03:40:12.927Z,57.54
2022-10-19T03:42:43.849Z,57.11
2022-10-19T03:45:14.890Z,57.32
2022-10-19T03:47:45.916Z,57.53
2022-10-19T03:50:19.883Z,57.39
2022-10-19T03:52:52.540Z,57.24
2022-10-19T03:55:23.516Z,57.20
2022-10-19T03:57:54.454Z,56.76
2022-10-19T04:00:25.930Z,56.42
2022-10-19T04:02:56.779Z,56.41
2022-10-19T04:05:27.742Z,56.19
2022-10-19T04:07:58.834Z,55.92
2022-10-19T04:10:29.710Z,55.50
2022-10-19T04:13:00.625Z,55.01
2022-10-19T04:15:31.512Z,54.57
2022-10-19T04:18:02.445Z,54.92
2022-10-19T04:20:33.272Z,54.84
2022-10-19T04:23:04.215Z,54.99
2022-10-19T04:25:35.300Z,54.51
2022-10-19T04:28:06.295Z,54.50
2022-10-19T04:30:37.098Z,54.79
2022-10-19T04:33:07.931Z,54.17
2022-10-19T04:35:38.815Z,54.90
2022-10-19T04:38:09.919Z,54.04
2022-10-19T04:40:41.487Z,54.61
2022-10-19T04:43:12.604Z,54.10
2022-10-19T04:45:43.625Z,54.48
2022-10-19T04:48:15.276Z,53.67
2022-10-19T04:50:46.393Z,53.63
2022-10-19T04:55:59.123Z,53.80
2022-10-19T04:58:30.740Z,53.58
2022-10-19T05:01:01.980Z,53.70
2022-10-19T05:03:32.956Z,53.88
2022-10-19T05:06:03.910Z,54.14
2022-10-19T05:08:35.466Z,53.66
2022-10-19T05:11:17.997Z,53.86
2022-10-19T05:13:49.651Z,53.17
2022-10-19T05:16:23.454Z,52.89
2022-10-19T05:18:58.991Z,52.69
2022-10-19T05:21:31.668Z,52.72
2022-10-19T05:24:02.662Z,52.64
2022-10-19T05:26:33.834Z,52.13
2022-10-19T05:29:08.715Z,52.51
2022-10-19T05:31:39.686Z,52.18
2022-10-19T05:34:10.865Z,52.35
2022-10-19T05:36:43.086Z,52.63
2022-10-19T05:39:19.672Z,53.05
2022-10-19T05:41:51.377Z,53.23
2022-10-19T05:44:25.329Z,53.08
2022-10-19T05:46:56.374Z,53.41
2022-10-19T05:49:27.703Z,52.89
2022-10-19T05:51:58.198Z,52.94
2022-10-19T05:54:32.219Z,52.85
2022-10-19T05:57:03.933Z,52.74
2022-10-19T05:59:34.987Z,52.52
2022-10-19T06:02:06.533Z,52.82
2022-10-19T06:04:38.016Z,52.28
2022-10-19T06:07:09.145Z,52.46
2022-10-19T06:09:40.137Z,52.49
2022-10-19T06:12:11.074Z,52.30
2022-10-19T06:14:42.197Z,52.30
2022-10-19T06:17:13.777Z,51.95
2022-10-19T06:19:45.012Z,52.03
2022-10-19T06:22:16.120Z,51.79
2022-10-19T06:24:47.342Z,51.86
2022-10-19T06:27:18.168Z,51.98
2022-10-19T06:29:49.330Z,51.94
2022-10-19T06:32:20.581Z,52.24
2022-10-19T06:34:56.324Z,52.21
2022-10-19T06:37:27.755Z,51.59
2022-10-19T06:40:00.011Z,51.45
2022-10-19T06:42:32.807Z,51.46
2022-10-19T06:45:03.718Z,51.41
2022-10-19T06:47:36.353Z,51.36
2022-10-19T06:50:09.802Z,50.86
2022-10-19T06:52:41.264Z,51.69
2022-10-19T06:55:18.543Z,51.47
2022-10-19T06:57:49.577Z,51.32
2022-10-19T07:00:20.862Z,50.56
2022-10-19T07:02:51.659Z,51.40
2022-10-19T07:05:25.410Z,51.65
2022-10-19T07:07:56.649Z,51.55
2022-10-19T07:10:27.820Z,51.73
2022-10-19T07:13:00.231Z,51.84
2022-10-19T07:15:31.310Z,51.71
2022-10-19T07:18:12.531Z,52.03
2022-10-19T07:20:49.620Z,52.16
2022-10-19T07:23:29.691Z,51.95
2022-10-19T07:28:53.891Z,51.72
2022-10-19T07:31:38.696Z,51.79
2022-10-19T07:34:09.724Z,51.28
2022-10-19T07:36:46.054Z,51.49
2022-10-19T07:42:03.055Z,51.66
2022-10-19T07:44:35.952Z,51.01
2022-10-19T07:47:11.837Z,51.48
2022-10-19T07:49:48.200Z,52.13
2022-10-19T07:52:24.778Z,51.63
2022-10-19T07:54:59.503Z,51.71
2022-10-19T07:57:30.919Z,51.93
2022-10-19T08:00:05.036Z,51.87
2022-10-19T08:02:55.983Z,52.12
2022-10-19T08:05:42.390Z,51.63
2022-10-19T08:08:13.608Z,51.90
2022-10-19T08:10:44.714Z,51.67
2022-10-19T08:13:15.859Z,51.47
2022-10-19T08:15:46.942Z,51.44
2022-10-19T08:18:19.819Z,51.44
2022-10-19T08:20:56.327Z,51.86
2022-10-19T08:23:27.902Z,51.61
2022-10-19T08:26:02.748Z,51.58
2022-10-19T08:28:36.078Z,51.90
2022-10-19T08:31:18.811Z,51.87
2022-10-19T08:33:50.304Z,51.73
2022-10-19T08:36:23.211Z,52.03
2022-10-19T08:38:58.551Z,51.65
2022-10-19T08:41:44.599Z,51.89
2022-10-19T08:44:21.297Z,51.55
2022-10-19T08:47:07.701Z,51.47
2022-10-19T08:49:39.800Z,51.56
2022-10-19T08:52:24.511Z,51.62
2022-10-19T08:54:59.101Z,51.81
2022-10-19T08:57:41.575Z,51.48
2022-10-19T09:00:26.203Z,51.21
2022-10-19T09:03:56.369Z,51.74
2022-10-19T09:06:27.885Z,51.93
2022-10-19T09:09:00.935Z,51.73
2022-10-19T09:11:38.232Z,52.16
2022-10-19T09:14:19.999Z,52.19
2022-10-19T09:16:51.153Z,51.95
2022-10-19T09:19:31.110Z,51.99
2022-10-19T09:22:10.153Z,52.36
2022-10-19T09:24:52.759Z,52.22
2022-10-19T09:27:38.000Z,52.36
2022-10-19T09:30:22.616Z,51.68
2022-10-19T09:33:04.286Z,52.23
2022-10-19T09:35:40.782Z,52.35
2022-10-19T09:38:17.790Z,52.46
2022-10-19T09:40:49.034Z,52.45
2022-10-19T09:43:27.516Z,52.45
2022-10-19T09:46:16.630Z,52.94
2022-10-19T09:48:55.830Z,52.54
2022-10-19T09:51:27.596Z,52.63
2022-10-19T09:53:59.493Z,52.64
2022-10-19T09:56:31.421Z,52.77
2022-10-19T09:59:05.963Z,53.05
2022-10-19T10:01:53.436Z,52.76
2022-10-19T10:04:28.111Z,52.82
2022-10-19T10:07:00.371Z,52.87
2022-10-19T10:09:34.889Z,53.31
2022-10-19T10:12:11.443Z,52.96
2022-10-19T10:14:43.987Z,52.85
2022-10-19T10:17:25.091Z,52.98
2022-10-19T10:20:02.135Z,52.42
2022-10-19T10:22:39.664Z,52.95
2022-10-19T10:25:21.571Z,53.02
2022-10-19T10:28:23.815Z,52.91
2022-10-19T10:31:09.909Z,53.35
2022-10-19T10:33:45.599Z,53.27
2022-10-19T10:36:19.678Z,52.88
2022-10-19T10:38:55.131Z,53.44
2022-10-19T10:41:27.333Z,53.52
2022-10-19T10:44:06.847Z,53.11
2022-10-19T10:47:04.852Z,53.28
2022-10-19T10:49:40.920Z,53.58
2022-10-19T10:52:19.350Z,53.49
2022-10-19T10:55:11.771Z,53.62
2022-10-19T10:57:48.160Z,53.65
2022-10-19T11:00:23.630Z,53.82
2022-10-19T11:03:22.182Z,53.35
2022-10-19T11:06:06.229Z,53.53
2022-10-19T11:08:53.997Z,53.74
2022-10-19T11:11:31.596Z,53.80
2022-10-19T11:14:11.425Z,53.63
2022-10-19T11:16:46.717Z,53.84
2022-10-19T11:19:22.879Z,53.95
2022-10-19T11:22:06.304Z,54.03
2022-10-19T11:25:05.462Z,54.01
2022-10-19T11:27:46.045Z,54.28
2022-10-19T11:30:28.926Z,54.29
2022-10-19T11:33:18.882Z,54.54
2022-10-19T11:35:58.633Z,54.59
2022-10-19T11:38:40.160Z,54.44
2022-10-19T11:41:42.464Z,54.62
2022-10-19T11:44:23.502Z,54.37
2022-10-19T11:47:19.902Z,54.43
2022-10-19T11:49:54.954Z,54.23
2022-10-19T11:52:49.054Z,54.26
2022-10-19T11:55:26.463Z,54.24
2022-10-19T11:58:38.376Z,54.43
2022-10-19T12:01:34.809Z,54.38
2022-10-19T12:04:38.099Z,54.68
2022-10-19T12:07:42.910Z,54.71
2022-10-19T12:10:37.631Z,54.70
2022-10-19T12:13:21.466Z,54.84
2022-10-19T12:16:02.329Z,54.90
2022-10-19T12:18:34.160Z,54.89
2022-10-19T12:21:27.070Z,54.87
2022-10-19T12:24:04.420Z,54.80
2022-10-19T12:26:40.948Z,54.26
2022-10-19T12:29:39.722Z,54.03
2022-10-19T12:32:20.601Z,54.37
2022-10-19T12:35:09.570Z,54.04
2022-10-19T12:38:10.575Z,54.69
2022-10-19T12:40:56.552Z,54.70
2022-10-19T12:43:39.954Z,54.95
2022-10-19T12:46:56.360Z,54.75
2022-10-19T12:49:53.971Z,54.81
2022-10-19T12:52:48.454Z,54.78
2022-10-19T12:55:28.507Z,54.36
2022-10-19T12:58:04.767Z,54.76
2022-10-19T13:00:52.633Z,54.55
2022-10-19T13:03:33.469Z,54.66
2022-10-19T13:06:17.371Z,54.53
2022-10-19T13:09:13.666Z,53.85
2022-10-19T13:12:23.652Z,54.19
2022-10-19T13:15:08.698Z,54.14
2022-10-19T13:17:43.482Z,54.59
2022-10-19T13:25:37.651Z,54.17
2022-10-19T13:28:41.465Z,54.96
2022-10-19T13:31:38.560Z,55.25
2022-10-19T13:34:22.283Z,55.59
2022-10-19T13:37:11.397Z,55.77
2022-10-19T13:39:48.933Z,55.78
2022-10-19T13:45:40.173Z,55.31
2022-10-19T13:51:59.209Z,55.31
2022-10-19T13:58:40.651Z,55.22
2022-10-19T14:01:48.430Z,54.88
2022-10-19T14:04:53.011Z,54.57
2022-10-19T14:10:32.827Z,54.79
2022-10-19T14:13:26.099Z,54.83
2022-10-19T14:16:00.604Z,54.61
2022-10-19T14:18:42.625Z,54.89
2022-10-19T14:21:15.148Z,54.80
2022-10-19T14:26:24.698Z,54.99
2022-10-19T14:29:02.718Z,55.08
2022-10-19T14:31:41.812Z,54.84
2022-10-19T14:34:14.699Z,55.09
2022-10-19T14:36:52.899Z,55.02
2022-10-19T14:39:38.548Z,55.01
2022-10-19T14:42:14.551Z,55.35
2022-10-19T14:44:47.561Z,55.48
2022-10-19T14:47:25.248Z,55.23
2022-10-19T14:49:59.954Z,55.98
2022-10-19T14:52:42.264Z,55.83
2022-10-19T14:55:20.955Z,55.81
2022-10-19T14:57:57.212Z,55.82
2022-10-19T15:00:31.591Z,55.46
2022-10-19T15:03:12.965Z,55.51
2022-10-19T15:05:53.933Z,55.10
2022-10-19T15:08:34.632Z,55.47
2022-10-19T15:11:12.215Z,55.94
2022-10-19T15:13:46.651Z,56.03
2022-10-19T15:16:50.513Z,56.00
2022-10-19T15:19:33.635Z,56.35
2022-10-19T15:22:11.283Z,56.71
2022-10-19T15:24:58.368Z,57.15
2022-10-19T15:27:52.971Z,57.30
2022-10-19T15:30:34.854Z,57.94
2022-10-19T15:33:09.128Z,58.04
2022-10-19T15:35:44.012Z,58.10
2022-10-19T15:38:26.859Z,57.97
2022-10-19T15:41:03.967Z,58.30
2022-10-19T15:43:38.856Z,58.82
2022-10-19T15:46:20.190Z,58.71
2022-10-19T15:48:55.582Z,59.64
2022-10-19T15:51:27.228Z,59.50
2022-10-19T15:54:00.392Z,59.19
2022-10-19T15:56:34.486Z,60.44
2022-10-19T15:59:09.507Z,59.43
2022-10-19T16:01:41.494Z,59.54
2022-10-19T16:04:14.839Z,60.21
2022-10-19T16:06:49.520Z,59.80
2022-10-19T16:09:24.505Z,59.59
2022-10-19T16:11:59.757Z,59.49
2022-10-19T16:14:37.223Z,59.37
2022-10-19T16:17:08.870Z,59.51
2022-10-19T16:19:40.610Z,59.15
2022-10-19T16:22:15.074Z,58.93
2022-10-19T16:25:03.316Z,58.84
2022-10-19T16:27:44.401Z,59.11
2022-10-19T16:30:24.167Z,59.00
2022-10-19T16:33:05.379Z,59.13
2022-10-19T16:35:37.254Z,59.23
2022-10-19T16:40:57.069Z,59.13
2022-10-19T16:43:36.036Z,59.33
2022-10-19T16:46:15.174Z,59.31
2022-10-19T16:49:07.784Z,59.30
2022-10-19T16:51:47.202Z,59.22
2022-10-19T16:54:23.452Z,59.08
2022-10-19T16:56:55.813Z,58.90
2022-10-19T16:59:27.618Z,58.95
2022-10-19T17:01:59.484Z,59.00
2022-10-19T17:04:31.037Z,59.25
2022-10-19T17:07:02.677Z,59.36
2022-10-19T17:09:41.831Z,59.51
2022-10-19T17:12:14.431Z,59.65
2022-10-19T17:14:46.862Z,59.73
2022-10-19T17:17:19.947Z,59.35
2022-10-19T17:19:51.602Z,59.34
2022-10-19T17:22:23.169Z,59.50
2022-10-19T17:24:54.695Z,59.37
2022-10-19T17:27:29.135Z,59.37
2022-10-19T17:30:00.627Z,59.46
2022-10-19T17:32:32.268Z,59.46
2022-10-19T17:35:03.982Z,59.46
2022-10-19T17:37:38.730Z,59.61
2022-10-19T17:40:11.115Z,59.48
2022-10-19T17:42:42.781Z,59.49
2022-10-19T17:45:14.698Z,59.87
2022-10-19T17:47:46.339Z,59.56
2022-10-19T17:50:17.927Z,59.62
2022-10-19T17:52:49.745Z,59.83
2022-10-19T17:57:53.328Z,59.37
2022-10-19T18:00:24.898Z,59.25
2022-10-19T18:02:56.454Z,59.24
2022-10-19T18:05:27.750Z,59.12
2022-10-19T18:07:59.424Z,58.87
2022-10-19T18:10:30.844Z,59.24
2022-10-19T18:13:01.760Z,59.04
2022-10-19T18:15:33.244Z,59.15
2022-10-19T18:18:04.790Z,58.64
2022-10-19T18:20:36.246Z,58.91
2022-10-19T18:23:09.364Z,58.71
2022-10-19T18:25:53.980Z,58.87
2022-10-19T18:28:26.072Z,58.73
2022-10-19T18:30:57.596Z,58.93
2022-10-19T18:33:32.411Z,59.06
2022-10-19T18:36:04.392Z,58.66
2022-10-19T18:38:36.150Z,58.79
2022-10-19T18:41:09.877Z,58.39
2022-10-19T18:43:42.298Z,58.58
2022-10-19T18:46:13.876Z,58.83
2022-10-19T18:48:45.474Z,58.46
2022-10-19T18:51:18.329Z,58.48
2022-10-19T18:53:50.976Z,58.59
2022-10-19T18:56:25.584Z,58.64
2022-10-19T18:58:57.199Z,58.61
2022-10-19T19:01:31.178Z,58.45
2022-10-19T19:04:10.170Z,58.68
2022-10-19T19:06:42.954Z,58.30
2022-10-19T19:09:16.155Z,58.33
2022-10-19T19:11:47.714Z,58.16
2022-10-19T19:14:23.920Z,58.52
2022-10-19T19:16:55.650Z,58.04
2022-10-19T19:19:28.869Z,58.15
2022-10-19T19:22:02.275Z,58.19
2022-10-19T19:24:38.650Z,58.21
2022-10-19T19:27:10.394Z,58.33
2022-10-19T19:29:41.982Z,58.44
2022-10-19T19:32:13.668Z,58.35
2022-10-19T19:34:45.603Z,58.50
2022-10-19T19:37:17.213Z,58.43
2022-10-19T19:39:48.944Z,58.19
2022-10-19T19:42:24.377Z,58.67
2022-10-19T19:44:58.693Z,58.61
2022-10-19T19:47:30.262Z,58.55
2022-10-19T19:50:01.963Z,58.44
2022-10-19T19:52:39.423Z,58.58
2022-10-19T19:55:12.418Z,58.48
2022-10-19T19:57:44.125Z,58.64
2022-10-19T20:00:16.275Z,58.61
2022-10-19T20:02:47.856Z,59.04
2022-10-19T20:05:19.589Z,58.80
2022-10-19T20:07:51.512Z,58.69
2022-10-19T20:10:23.025Z,59.01
2022-10-19T20:12:54.674Z,59.17
2022-10-19T20:15:26.253Z,59.04
2022-10-19T20:17:58.074Z,59.12
2022-10-19T20:20:29.834Z,59.22
2022-10-19T20:23:01.578Z,59.14
2022-10-19T20:25:33.231Z,59.29
2022-10-19T20:28:04.941Z,59.29
2022-10-19T20:30:37.047Z,59.22
2022-10-19T20:33:08.560Z,59.18
2022-10-19T20:35:40.314Z,59.27
2022-10-19T20:38:11.651Z,59.23
2022-10-19T20:40:43.651Z,59.30
2022-10-19T20:43:15.384Z,59.18
2022-10-19T20:45:46.919Z,59.15
2022-10-19T20:48:18.637Z,59.21
2022-10-19T20:50:50.319Z,59.30
2022-10-19T20:53:21.822Z,59.22
2022-10-19T20:55:53.202Z,59.17
2022-10-19T20:58:24.683Z,59.10
2022-10-19T21:00:56.198Z,59.30
2022-10-19T21:03:27.621Z,59.30
2022-10-19T21:05:58.602Z,59.42
2022-10-19T21:08:30.125Z,59.75
2022-10-19T21:11:01.703Z,59.44
2022-10-19T21:13:33.174Z,59.65
2022-10-19T21:16:21.326Z,59.60
2022-10-19T21:18:53.661Z,59.74
2022-10-19T21:21:28.220Z,59.72
2022-10-19T21:24:02.835Z,59.83
2022-10-19T21:26:36.875Z,59.80
2022-10-19T21:29:10.188Z,60.24
2022-10-19T21:31:46.548Z,59.96
2022-10-19T21:34:25.058Z,60.16
2022-10-19T21:36:57.185Z,60.11
2022-10-19T21:39:28.840Z,60.25
2022-10-19T21:42:00.806Z,60.40
2022-10-19T21:44:32.300Z,60.44
2022-10-19T21:47:04.029Z,60.56
2022-10-19T21:49:34.943Z,60.62
2022-10-19T21:52:06.499Z,60.91
2022-10-19T21:54:37.861Z,60.81
2022-10-19T21:57:08.607Z,60.76
2022-10-19T21:59:40.029Z,61.18
2022-10-19T22:02:11.403Z,60.90
2022-10-19T22:04:43.065Z,61.18
2022-10-19T22:07:14.936Z,61.16
2022-10-19T22:09:46.876Z,61.03
2022-10-19T22:12:18.468Z,61.25
2022-10-19T22:14:50.027Z,61.26
2022-10-19T22:17:21.474Z,61.32
2022-10-19T22:19:53.851Z,61.34
2022-10-19T22:22:25.291Z,61.51
2022-10-19T22:24:56.654Z,61.58
2022-10-19T22:27:28.140Z,62.34
2022-10-19T22:29:59.595Z,61.80
2022-10-19T22:32:31.066Z,61.85
2022-10-19T22:35:02.603Z,62.24
2022-10-19T22:37:34.046Z,62.55
2022-10-19T22:40:05.179Z,62.33
2022-10-19T22:42:37.193Z,62.46
2022-10-19T22:45:09.710Z,62.67
2022-10-19T22:47:41.429Z,62.46
2022-10-19T22:50:14.950Z,62.84
2022-10-19T22:55:16.701Z,63.25
2022-10-19T22:57:48.207Z,62.80
2022-10-19T23:00:19.830Z,63.10
2022-10-19T23:02:51.240Z,63.30
2022-10-19T23:05:22.284Z,63.11
2022-10-19T23:07:53.711Z,63.17
2022-10-19T23:10:25.381Z,62.91
2022-10-19T23:12:57.194Z,63.10
2022-10-19T23:15:28.465Z,62.93
2022-10-19T23:17:59.269Z,63.09
2022-10-19T23:20:30.590Z,62.98
2022-10-19T23:23:01.279Z,63.17
2022-10-19T23:28:08.828Z,63.03
2022-10-19T23:30:40.558Z,63.15
2022-10-19T23:33:11.734Z,63.51
2022-10-19T23:35:42.987Z,63.11
2022-10-19T23:38:14.425Z,63.41
2022-10-19T23:40:47.499Z,63.29
2022-10-19T23:43:18.848Z,63.30
2022-10-19T23:45:50.060Z,63.21
2022-10-19T23:48:20.931Z,63.17
2022-10-19T23:51:00.809Z,63.29
2022-10-19T23:53:35.848Z,63.31
2022-10-19T23:56:13.022Z,63.29
2022-10-19T23:58:44.555Z,63.30
